createdAt,value
2017-06-24T00:00:11.542Z,980.7
2017-06-24T00:01:14.206Z,980.7
2017-06-24T00:02:16.974Z,980.8
2017-06-24T00:03:20.506Z,980.4
2017-06-24T00:04:23.120Z,980.7
2017-06-24T00:05:26.871Z,980.7
2017-06-24T00:06:29.529Z,980.7
2017-06-24T00:07:32.128Z,980.8
2017-06-24T00:08:34.746Z,980.7
2017-06-24T00:09:37.458Z,980.8
2017-06-24T00:10:40.117Z,980.8
2017-06-24T00:11:42.783Z,980.8
2017-06-24T00:12:45.410Z,980.8
2017-06-24T00:13:48.094Z,980.8
2017-06-24T00:14:50.686Z,980.7
2017-06-24T00:15:53.319Z,980.7
2017-06-24T00:16:56.822Z,980.8
2017-06-24T00:18:00.168Z,980.5
2017-06-24T00:19:02.869Z,980.8
2017-06-24T00:20:05.475Z,980.8
2017-06-24T00:21:08.212Z,980.8
2017-06-24T00:22:10.872Z,980.8
2017-06-24T00:23:13.472Z,980.7
2017-06-24T00:24:16.142Z,980.7
2017-06-24T00:25:18.931Z,980.7
2017-06-24T00:26:21.504Z,980.7
2017-06-24T00:27:24.086Z,980.7
2017-06-24T00:28:26.718Z,980.7
2017-06-24T00:29:29.825Z,980.7
2017-06-24T00:30:32.411Z,980.6
2017-06-24T00:31:35.202Z,980.7
2017-06-24T00:32:37.890Z,980.8
2017-06-24T00:33:41.218Z,980.7
2017-06-24T00:34:43.957Z,980.8
2017-06-24T00:35:46.619Z,980.8
2017-06-24T00:36:49.189Z,980.8
2017-06-24T00:37:51.770Z,980.8
2017-06-24T00:38:54.423Z,980.8
2017-06-24T00:39:57.019Z,980.7
2017-06-24T00:40:59.577Z,980.8
2017-06-24T00:42:02.146Z,980.8
2017-06-24T00:43:04.697Z,980.8
2017-06-24T00:44:07.520Z,980.8
2017-06-24T00:45:10.120Z,980.8
2017-06-24T00:46:12.772Z,980.5
2017-06-24T00:47:15.355Z,980.8
2017-06-24T00:48:17.979Z,980.8
2017-06-24T00:49:20.749Z,980.8
2017-06-24T00:50:23.336Z,980.8
2017-06-24T00:51:27.852Z,980.8
2017-06-24T00:52:30.562Z,980.8
2017-06-24T00:53:33.238Z,980.9
2017-06-24T00:54:36.284Z,980.8
2017-06-24T00:55:39.011Z,980.9
2017-06-24T00:56:41.713Z,980.8
2017-06-24T00:57:44.331Z,980.8
2017-06-24T00:58:47.048Z,980.5
2017-06-24T00:59:49.775Z,980.8
2017-06-24T01:00:52.285Z,980.8
2017-06-24T01:01:54.891Z,980.8
2017-06-24T01:02:57.522Z,980.8
2017-06-24T01:04:00.126Z,980.9
2017-06-24T01:05:03.822Z,980.9
2017-06-24T01:06:06.448Z,981
2017-06-24T01:07:09.165Z,980.9
2017-06-24T01:08:11.857Z,980.9
2017-06-24T01:09:14.538Z,980.9
2017-06-24T01:10:17.165Z,980.9
2017-06-24T01:11:19.770Z,980.9
2017-06-24T01:12:22.668Z,980.5
2017-06-24T01:13:30.073Z,980.9
2017-06-24T01:14:32.765Z,980.9
2017-06-24T01:15:35.374Z,980.6
2017-06-24T01:16:38.041Z,980.8
2017-06-24T01:17:40.710Z,980.9
2017-06-24T01:18:43.294Z,980.9
2017-06-24T01:19:45.853Z,980.9
2017-06-24T01:20:48.502Z,980.8
2017-06-24T01:21:51.073Z,980.8
2017-06-24T01:22:53.725Z,980.9
2017-06-24T01:23:56.307Z,980.9
2017-06-24T01:24:59.090Z,980.8
2017-06-24T01:26:01.765Z,980.9
2017-06-24T01:27:04.329Z,980.8
2017-06-24T01:28:06.974Z,980.8
2017-06-24T01:29:09.558Z,980.8
2017-06-24T01:30:12.248Z,980.8
2017-06-24T01:31:14.886Z,980.8
2017-06-24T01:32:17.508Z,980.8
2017-06-24T01:33:20.088Z,980.9
2017-06-24T01:34:22.693Z,980.9
2017-06-24T01:35:25.243Z,980.9
2017-06-24T01:36:30.322Z,980.9
2017-06-24T01:37:32.946Z,980.9
2017-06-24T01:38:35.491Z,980.9
2017-06-24T01:39:38.088Z,980.9
2017-06-24T01:40:40.695Z,980.6
2017-06-24T01:41:43.336Z,980.9
2017-06-24T01:42:45.920Z,980.6
2017-06-24T01:43:48.590Z,980.9
2017-06-24T01:44:51.134Z,980.9
2017-06-24T01:45:53.699Z,980.9
2017-06-24T01:46:56.295Z,980.8
2017-06-24T01:47:58.850Z,980.8
2017-06-24T01:49:01.478Z,980.8
2017-06-24T01:50:04.158Z,980.7
2017-06-24T01:51:06.747Z,980.8
2017-06-24T01:52:09.366Z,980.8
2017-06-24T01:53:12.378Z,980.8
2017-06-24T01:54:15.015Z,980.8
2017-06-24T01:55:17.684Z,980.8
2017-06-24T01:56:20.611Z,980.8
2017-06-24T01:57:23.235Z,980.8
2017-06-24T01:58:26.392Z,980.8
2017-06-24T01:59:29.036Z,980.8
2017-06-24T02:00:32.323Z,980.8
2017-06-24T02:01:34.881Z,980.8
2017-06-24T02:02:37.481Z,980.8
2017-06-24T02:03:40.153Z,980.8
2017-06-24T02:04:42.844Z,980.8
2017-06-24T02:05:45.598Z,980.8
2017-06-24T02:06:48.190Z,980.8
2017-06-24T02:07:50.809Z,980.8
2017-06-24T02:08:53.362Z,980.7
2017-06-24T02:09:55.955Z,980.8
2017-06-24T02:10:58.587Z,980.8
2017-06-24T02:12:01.194Z,980.8
2017-06-24T02:13:03.782Z,980.8
2017-06-24T02:14:06.431Z,980.8
2017-06-24T02:15:09.102Z,980.8
2017-06-24T02:16:11.800Z,980.7
2017-06-24T02:17:14.391Z,980.8
2017-06-24T02:18:17.049Z,980.8
2017-06-24T02:19:19.606Z,980.4
2017-06-24T02:20:22.242Z,980.8
2017-06-24T02:21:24.806Z,980.7
2017-06-24T02:22:28.788Z,980.7
2017-06-24T02:23:31.336Z,980.7
2017-06-24T02:24:33.924Z,980.7
2017-06-24T02:25:36.547Z,980.7
2017-06-24T02:26:39.293Z,980.7
2017-06-24T02:27:41.848Z,980.7
2017-06-24T02:28:44.456Z,980.7
2017-06-24T02:29:47.049Z,980.7
2017-06-24T02:30:49.713Z,980.7
2017-06-24T02:31:52.255Z,980.7
2017-06-24T02:32:54.789Z,980.7
2017-06-24T02:33:57.430Z,980.7
2017-06-24T02:34:59.988Z,980.7
2017-06-24T02:36:02.661Z,980.7
2017-06-24T02:37:05.243Z,980.7
2017-06-24T02:38:07.871Z,980.7
2017-06-24T02:39:10.489Z,980.7
2017-06-24T02:40:13.179Z,980.7
2017-06-24T02:41:15.785Z,980.7
2017-06-24T02:42:18.380Z,980.7
2017-06-24T02:43:21.061Z,980.7
2017-06-24T02:44:23.621Z,980.7
2017-06-24T02:45:27.429Z,980.7
2017-06-24T02:46:30.100Z,980.7
2017-06-24T02:47:32.736Z,980.7
2017-06-24T02:48:35.431Z,980.7
2017-06-24T02:49:38.025Z,980.7
2017-06-24T02:50:40.669Z,980.7
2017-06-24T02:51:43.246Z,980.7
2017-06-24T02:52:45.832Z,980.7
2017-06-24T02:53:48.548Z,980.7
2017-06-24T02:54:51.863Z,980.6
2017-06-24T02:55:54.447Z,980.6
2017-06-24T02:56:57.013Z,980.6
2017-06-24T02:57:59.659Z,980.6
2017-06-24T02:59:02.278Z,980.7
2017-06-24T03:00:04.876Z,980.6
2017-06-24T03:01:07.491Z,980.6
2017-06-24T03:02:10.102Z,980.6
2017-06-24T03:03:12.734Z,980.6
2017-06-24T03:04:15.307Z,980.5
2017-06-24T03:05:17.943Z,980.5
2017-06-24T03:06:20.569Z,980.5
2017-06-24T03:07:23.171Z,980.6
2017-06-24T03:08:27.870Z,980.5
2017-06-24T03:09:30.478Z,980.5
2017-06-24T03:10:33.134Z,980.6
2017-06-24T03:11:35.723Z,980.6
2017-06-24T03:12:38.365Z,980.6
2017-06-24T03:13:40.913Z,980.5
2017-06-24T03:14:44.464Z,980.5
2017-06-24T03:15:47.041Z,980.5
2017-06-24T03:16:49.716Z,980.5
2017-06-24T03:17:52.299Z,980.5
2017-06-24T03:18:54.944Z,980.4
2017-06-24T03:19:57.628Z,980.4
2017-06-24T03:21:00.177Z,980.4
2017-06-24T03:22:02.722Z,980.4
2017-06-24T03:23:05.353Z,980.4
2017-06-24T03:24:08.040Z,980.4
2017-06-24T03:25:10.546Z,980.4
2017-06-24T03:26:13.160Z,980.4
2017-06-24T03:27:15.795Z,980.3
2017-06-24T03:28:18.540Z,980.4
2017-06-24T03:29:21.117Z,980.4
2017-06-24T03:30:23.712Z,980.4
2017-06-24T03:31:28.636Z,980.4
2017-06-24T03:32:31.228Z,980.4
2017-06-24T03:33:33.865Z,980.4
2017-06-24T03:34:36.398Z,980.4
2017-06-24T03:35:39.004Z,980.4
2017-06-24T03:36:41.594Z,980.4
2017-06-24T03:37:44.237Z,980.5
2017-06-24T03:38:46.813Z,980.4
2017-06-24T03:39:49.461Z,980.4
2017-06-24T03:40:52.097Z,980.4
2017-06-24T03:41:54.656Z,980.4
2017-06-24T03:42:57.292Z,980.4
2017-06-24T03:43:59.889Z,980.4
2017-06-24T03:45:02.496Z,980.4
2017-06-24T03:46:05.121Z,980.4
2017-06-24T03:47:07.902Z,980.4
2017-06-24T03:48:10.747Z,980.5
2017-06-24T03:49:13.531Z,980.5
2017-06-24T03:50:16.121Z,980.4
2017-06-24T03:51:18.794Z,980.4
2017-06-24T03:52:21.411Z,980.4
2017-06-24T03:53:24.012Z,980.5
2017-06-24T03:54:27.930Z,980.4
2017-06-24T03:55:30.538Z,980.1
2017-06-24T03:56:33.092Z,980.5
2017-06-24T03:57:35.701Z,980.5
2017-06-24T03:58:38.280Z,980.5
2017-06-24T03:59:40.813Z,980.5
2017-06-24T04:00:43.321Z,980.5
2017-06-24T04:01:46.184Z,980.5
2017-06-24T04:02:48.936Z,980.5
2017-06-24T04:03:51.647Z,980.5
2017-06-24T04:04:54.184Z,980.2
2017-06-24T04:05:56.759Z,980.4
2017-06-24T04:06:59.328Z,980.4
2017-06-24T04:08:02.015Z,980.5
2017-06-24T04:09:04.758Z,980.5
2017-06-24T04:10:07.364Z,980.5
2017-06-24T04:11:10.003Z,980.5
2017-06-24T04:12:12.583Z,980.5
2017-06-24T04:13:15.205Z,980.4
2017-06-24T04:14:17.857Z,980.5
2017-06-24T04:15:21.172Z,980.5
2017-06-24T04:16:23.799Z,980.5
2017-06-24T04:17:28.467Z,980.5
2017-06-24T04:18:31.713Z,980.5
2017-06-24T04:19:34.312Z,980.5
2017-06-24T04:20:36.996Z,980.5
2017-06-24T04:21:39.676Z,980.4
2017-06-24T04:22:42.339Z,980.4
2017-06-24T04:23:44.964Z,980.4
2017-06-24T04:24:47.654Z,980.5
2017-06-24T04:25:50.350Z,980.4
2017-06-24T04:26:52.919Z,980.3
2017-06-24T04:27:55.452Z,980.4
2017-06-24T04:28:58.074Z,980.3
2017-06-24T04:30:00.708Z,980.3
2017-06-24T04:31:04.096Z,980.3
2017-06-24T04:32:06.634Z,980.3
2017-06-24T04:33:09.711Z,980.3
2017-06-24T04:34:12.271Z,980.3
2017-06-24T04:35:14.857Z,980.3
2017-06-24T04:36:17.450Z,980.3
2017-06-24T04:37:20.112Z,980.3
2017-06-24T04:38:22.774Z,980.1
2017-06-24T04:39:25.363Z,980
2017-06-24T04:40:29.568Z,980.3
2017-06-24T04:41:32.221Z,980.3
2017-06-24T04:42:34.784Z,980.3
2017-06-24T04:43:37.408Z,980.2
2017-06-24T04:44:40.032Z,980.2
2017-06-24T04:45:42.584Z,980.3
2017-06-24T04:46:45.207Z,980.3
2017-06-24T04:47:47.795Z,980.3
2017-06-24T04:48:50.451Z,980.2
2017-06-24T04:49:53.813Z,980.3
2017-06-24T04:50:56.436Z,980.3
2017-06-24T04:51:58.966Z,980.2
2017-06-24T04:53:01.630Z,980.3
2017-06-24T04:54:04.255Z,980.2
2017-06-24T04:55:06.787Z,980.2
2017-06-24T04:56:09.418Z,980.2
2017-06-24T04:57:11.956Z,980.2
2017-06-24T04:58:14.513Z,980.3
2017-06-24T04:59:17.134Z,980.3
2017-06-24T05:00:19.706Z,980.3
2017-06-24T05:01:22.502Z,980.3
2017-06-24T05:02:25.037Z,980.3
2017-06-24T05:03:27.652Z,980.3
2017-06-24T05:04:30.330Z,979.9
2017-06-24T05:05:32.932Z,980.3
2017-06-24T05:06:35.445Z,980.2
2017-06-24T05:07:38.321Z,980.3
2017-06-24T05:08:40.880Z,979.9
2017-06-24T05:09:43.474Z,980.3
2017-06-24T05:10:46.048Z,980.2
2017-06-24T05:11:48.659Z,980.3
2017-06-24T05:12:51.274Z,980.2
2017-06-24T05:13:53.878Z,980.3
2017-06-24T05:14:56.471Z,980.2
2017-06-24T05:15:59.140Z,980.2
2017-06-24T05:17:02.066Z,980.2
2017-06-24T05:18:04.645Z,980.3
2017-06-24T05:19:07.274Z,980.2
2017-06-24T05:20:09.851Z,980.2
2017-06-24T05:21:12.415Z,980.2
2017-06-24T05:22:14.902Z,980.2
2017-06-24T05:23:17.727Z,980.2
2017-06-24T05:24:20.302Z,980.1
2017-06-24T05:25:22.870Z,979.9
2017-06-24T05:26:25.467Z,980.1
2017-06-24T05:27:31.649Z,980.1
2017-06-24T05:28:34.352Z,980.2
2017-06-24T05:29:37.884Z,980.1
2017-06-24T05:30:42.010Z,980.1
2017-06-24T05:31:44.586Z,980.1
2017-06-24T05:32:47.196Z,980.1
2017-06-24T05:33:50.305Z,980.1
2017-06-24T05:34:52.869Z,980
2017-06-24T05:35:55.452Z,980
2017-06-24T05:36:58.089Z,980
2017-06-24T05:38:00.753Z,980.1
2017-06-24T05:39:03.414Z,980
2017-06-24T05:40:06.009Z,979.9
2017-06-24T05:41:08.750Z,979.8
2017-06-24T05:42:13.357Z,979.7
2017-06-24T05:43:15.975Z,979.7
2017-06-24T05:44:18.622Z,979.8
2017-06-24T05:45:21.230Z,979.8
2017-06-24T05:46:23.783Z,979.7
2017-06-24T05:47:26.430Z,979.7
2017-06-24T05:48:29.107Z,979.7
2017-06-24T05:49:31.590Z,979.8
2017-06-24T05:50:34.216Z,979.7
2017-06-24T05:51:36.828Z,979.8
2017-06-24T05:52:39.500Z,979.7
2017-06-24T05:53:42.136Z,979.8
2017-06-24T05:54:44.776Z,979.7
2017-06-24T05:55:47.389Z,979.7
2017-06-24T05:56:49.986Z,979.8
2017-06-24T05:57:52.566Z,979.7
2017-06-24T05:58:55.120Z,979.8
2017-06-24T05:59:57.670Z,979.7
2017-06-24T06:01:00.372Z,979.7
2017-06-24T06:02:03.021Z,979.7
2017-06-24T06:03:05.621Z,979.7
2017-06-24T06:04:08.973Z,979.6
2017-06-24T06:05:11.595Z,979.6
2017-06-24T06:06:14.185Z,979.6
2017-06-24T06:07:16.774Z,979.6
2017-06-24T06:08:19.728Z,979.6
2017-06-24T06:09:22.356Z,979.7
2017-06-24T06:10:24.954Z,979.7
2017-06-24T06:11:27.557Z,979.7
2017-06-24T06:12:30.315Z,979.7
2017-06-24T06:13:32.852Z,979.7
2017-06-24T06:14:35.436Z,979.7
2017-06-24T06:15:38.039Z,979.6
2017-06-24T06:16:40.608Z,979.7
2017-06-24T06:17:43.277Z,979.5
2017-06-24T06:18:46.471Z,979.6
2017-06-24T06:19:49.169Z,979.5
2017-06-24T06:20:52.465Z,979.7
2017-06-24T06:21:55.060Z,979.6
2017-06-24T06:22:57.637Z,979.6
2017-06-24T06:24:00.378Z,979.7
2017-06-24T06:25:03.046Z,979.7
2017-06-24T06:26:05.642Z,979.6
2017-06-24T06:27:08.296Z,979.6
2017-06-24T06:28:10.964Z,979.6
2017-06-24T06:29:13.513Z,979.5
2017-06-24T06:30:16.315Z,979.6
2017-06-24T06:31:19.025Z,979.5
2017-06-24T06:32:21.556Z,979.5
2017-06-24T06:33:24.176Z,979.5
2017-06-24T06:34:27.547Z,979.5
2017-06-24T06:35:30.412Z,979.4
2017-06-24T06:36:33.068Z,979.5
2017-06-24T06:37:35.602Z,979.4
2017-06-24T06:38:38.228Z,979.5
2017-06-24T06:39:41.819Z,979.5
2017-06-24T06:40:44.346Z,979.5
2017-06-24T06:41:47.022Z,979.6
2017-06-24T06:42:49.777Z,979.6
2017-06-24T06:43:52.337Z,979.6
2017-06-24T06:44:54.953Z,979.6
2017-06-24T06:45:57.538Z,979.6
2017-06-24T06:47:00.307Z,979.6
2017-06-24T06:48:02.912Z,979.6
2017-06-24T06:49:05.491Z,979.8
2017-06-24T06:50:08.210Z,979.6
2017-06-24T06:51:10.931Z,979.6
2017-06-24T06:52:13.477Z,979.6
2017-06-24T06:53:16.184Z,979.6
2017-06-24T06:54:19.022Z,979.6
2017-06-24T06:55:21.638Z,979.6
2017-06-24T06:56:24.273Z,979.7
2017-06-24T06:57:26.883Z,979.4
2017-06-24T06:58:29.496Z,979.7
2017-06-24T06:59:32.094Z,979.6
2017-06-24T07:00:34.709Z,979.7
2017-06-24T07:01:37.257Z,979.7
2017-06-24T07:02:39.961Z,979.7
2017-06-24T07:03:42.581Z,979.7
2017-06-24T07:04:45.358Z,979.7
2017-06-24T07:05:50.368Z,979.7
2017-06-24T07:06:53.270Z,979.7
2017-06-24T07:07:55.948Z,979.6
2017-06-24T07:08:58.595Z,979.7
2017-06-24T07:10:01.324Z,979.6
2017-06-24T07:11:04.028Z,979.6
2017-06-24T07:12:06.705Z,979.7
2017-06-24T07:13:09.484Z,979.7
2017-06-24T07:14:12.100Z,979.7
2017-06-24T07:15:14.945Z,979.6
2017-06-24T07:16:17.665Z,979.7
2017-06-24T07:17:20.402Z,979.7
2017-06-24T07:18:23.023Z,979.7
2017-06-24T07:19:25.694Z,979.5
2017-06-24T07:20:28.293Z,979.8
2017-06-24T07:21:30.979Z,979.7
2017-06-24T07:22:33.647Z,979.7
2017-06-24T07:23:36.217Z,979.7
2017-06-24T07:24:38.910Z,979.8
2017-06-24T07:25:41.510Z,979.7
2017-06-24T07:26:44.084Z,979.7
2017-06-24T07:27:46.777Z,979.6
2017-06-24T07:28:49.478Z,979.8
2017-06-24T07:29:52.120Z,979.9
2017-06-24T07:30:54.749Z,980
2017-06-24T07:31:57.385Z,979.8
2017-06-24T07:33:00.097Z,979.9
2017-06-24T07:34:02.734Z,979.8
2017-06-24T07:35:06.191Z,979.8
2017-06-24T07:36:08.991Z,979.9
2017-06-24T07:37:11.672Z,979.8
2017-06-24T07:38:14.254Z,979.8
2017-06-24T07:39:16.951Z,979.8
2017-06-24T07:40:19.699Z,979.7
2017-06-24T07:41:22.545Z,979.8
2017-06-24T07:42:25.141Z,979.8
2017-06-24T07:43:27.932Z,979.6
2017-06-24T07:44:30.662Z,979.8
2017-06-24T07:45:33.228Z,979.7
2017-06-24T07:46:36.540Z,979.7
2017-06-24T07:47:39.304Z,979.8
2017-06-24T07:48:41.976Z,979.9
2017-06-24T07:49:44.640Z,980
2017-06-24T07:50:47.287Z,979.9
2017-06-24T07:51:50.001Z,979.8
2017-06-24T07:52:52.620Z,979.9
2017-06-24T07:53:55.313Z,980
2017-06-24T07:54:58.050Z,980
2017-06-24T07:56:00.870Z,979.9
2017-06-24T07:57:04.233Z,979.9
2017-06-24T07:58:07.441Z,980
2017-06-24T07:59:10.260Z,979.9
2017-06-24T08:00:12.826Z,979.7
2017-06-24T08:01:15.564Z,979.8
2017-06-24T08:02:18.551Z,979.8
2017-06-24T08:03:25.316Z,979.9
2017-06-24T08:04:28.598Z,979.8
2017-06-24T08:05:31.302Z,979.8
2017-06-24T08:06:33.881Z,979.9
2017-06-24T08:07:37.124Z,979.9
2017-06-24T08:08:39.857Z,980
2017-06-24T08:09:42.473Z,980
2017-06-24T08:10:45.125Z,980.1
2017-06-24T08:11:47.816Z,980
2017-06-24T08:12:50.575Z,979.9
2017-06-24T08:13:53.286Z,980
2017-06-24T08:14:55.944Z,980
2017-06-24T08:16:00.424Z,979.6
2017-06-24T08:17:03.115Z,979.9
2017-06-24T08:18:05.742Z,979.9
2017-06-24T08:19:08.355Z,979.9
2017-06-24T08:20:11.191Z,979.9
2017-06-24T08:21:13.825Z,980
2017-06-24T08:22:16.457Z,980
2017-06-24T08:23:19.180Z,979.8
2017-06-24T08:24:21.873Z,979.6
2017-06-24T08:25:24.464Z,979.9
2017-06-24T08:26:27.088Z,979.9
2017-06-24T08:27:30.333Z,980
2017-06-24T08:28:33.078Z,980
2017-06-24T08:29:35.784Z,979.8
2017-06-24T08:30:38.464Z,979.9
2017-06-24T08:31:41.125Z,979.7
2017-06-24T08:32:44.289Z,979.7
2017-06-24T08:33:46.881Z,979.9
2017-06-24T08:34:49.625Z,979.9
2017-06-24T08:35:52.181Z,979.9
2017-06-24T08:36:54.776Z,979.9
2017-06-24T08:37:57.389Z,979.9
2017-06-24T08:39:00.074Z,979.5
2017-06-24T08:40:02.887Z,979.8
2017-06-24T08:41:05.815Z,979.9
2017-06-24T08:42:08.543Z,979.9
2017-06-24T08:43:11.272Z,979.8
2017-06-24T08:44:13.908Z,979.8
2017-06-24T08:45:16.630Z,979.8
2017-06-24T08:46:19.461Z,979.8
2017-06-24T08:47:22.194Z,979.4
2017-06-24T08:48:24.773Z,979.4
2017-06-24T08:49:27.743Z,979.7
2017-06-24T08:50:30.457Z,979.7
2017-06-24T08:51:33.142Z,979.6
2017-06-24T08:52:35.823Z,979.6
2017-06-24T08:53:38.398Z,979.6
2017-06-24T08:54:41.421Z,979.7
2017-06-24T08:55:44.143Z,979.7
2017-06-24T08:56:46.791Z,979.8
2017-06-24T08:57:49.468Z,979.8
2017-06-24T08:58:52.136Z,979.8
2017-06-24T08:59:54.761Z,979.7
2017-06-24T09:00:57.503Z,979.7
2017-06-24T09:02:00.261Z,979.7
2017-06-24T09:03:03.012Z,979.7
2017-06-24T09:04:05.748Z,979.7
2017-06-24T09:05:08.372Z,979.6
2017-06-24T09:06:11.329Z,979.7
2017-06-24T09:07:13.948Z,979.7
2017-06-24T09:08:25.674Z,979.6
2017-06-24T09:09:28.752Z,979.8
2017-06-24T09:10:31.804Z,979.7
2017-06-24T09:11:34.565Z,979.7
2017-06-24T09:12:37.375Z,979.7
2017-06-24T09:13:40.060Z,979.8
2017-06-24T09:14:42.718Z,979.7
2017-06-24T09:15:45.438Z,979.5
2017-06-24T09:16:48.087Z,979.8
2017-06-24T09:17:52.161Z,979.8
2017-06-24T09:18:55.433Z,979.7
2017-06-24T09:19:58.261Z,979.6
2017-06-24T09:21:01.567Z,979.7
2017-06-24T09:22:04.855Z,979.6
2017-06-24T09:23:07.742Z,979.5
2017-06-24T09:24:10.559Z,979.6
2017-06-24T09:25:13.247Z,979.7
2017-06-24T09:26:15.871Z,979.6
2017-06-24T09:27:18.568Z,979.6
2017-06-24T09:28:21.430Z,979.5
2017-06-24T09:29:24.062Z,979.5
2017-06-24T09:30:26.736Z,979.6
2017-06-24T09:31:29.447Z,979.5
2017-06-24T09:32:32.133Z,979.4
2017-06-24T09:33:34.830Z,979.4
2017-06-24T09:34:37.536Z,979.4
2017-06-24T09:35:40.206Z,979.2
2017-06-24T09:36:42.855Z,979.5
2017-06-24T09:37:45.485Z,979.5
2017-06-24T09:38:48.136Z,979.6
2017-06-24T09:39:50.824Z,979.5
2017-06-24T09:40:53.489Z,979.6
2017-06-24T09:41:56.255Z,979.6
2017-06-24T09:42:58.935Z,979.6
2017-06-24T09:44:01.701Z,979.6
2017-06-24T09:45:04.410Z,979.6
2017-06-24T09:46:07.298Z,979.6
2017-06-24T09:47:10.125Z,979.6
2017-06-24T09:48:12.782Z,979.6
2017-06-24T09:49:15.392Z,979.6
2017-06-24T09:50:18.103Z,979.3
2017-06-24T09:51:20.822Z,979.6
2017-06-24T09:52:23.464Z,979.6
2017-06-24T09:53:26.082Z,979.6
2017-06-24T09:54:28.800Z,979.6
2017-06-24T09:55:31.522Z,979.6
2017-06-24T09:56:34.178Z,979.6
2017-06-24T09:57:36.887Z,979.6
2017-06-24T09:58:39.748Z,979.6
2017-06-24T09:59:42.602Z,979.6
2017-06-24T10:00:45.273Z,979.6
2017-06-24T10:01:47.940Z,979.6
2017-06-24T10:02:50.602Z,979.5
2017-06-24T10:03:53.281Z,979.6
2017-06-24T10:04:55.897Z,979.5
2017-06-24T10:05:58.697Z,979.5
2017-06-24T10:07:01.600Z,979.5
2017-06-24T10:08:04.285Z,979.5
2017-06-24T10:09:07.112Z,979.4
2017-06-24T10:10:09.896Z,979.4
2017-06-24T10:11:12.637Z,979.4
2017-06-24T10:12:16.208Z,979.5
2017-06-24T10:13:18.850Z,979.5
2017-06-24T10:14:22.372Z,979.6
2017-06-24T10:15:25.083Z,979.3
2017-06-24T10:16:27.758Z,979.5
2017-06-24T10:17:30.546Z,979.5
2017-06-24T10:18:33.238Z,979.5
2017-06-24T10:19:35.876Z,979.5
2017-06-24T10:20:38.620Z,979.4
2017-06-24T10:21:41.516Z,979.4
2017-06-24T10:22:44.380Z,979.5
2017-06-24T10:23:47.086Z,979.5
2017-06-24T10:24:50.234Z,979.4
2017-06-24T10:25:53.009Z,979.5
2017-06-24T10:26:55.839Z,979.4
2017-06-24T10:27:58.571Z,979.4
2017-06-24T10:29:01.674Z,979.5
2017-06-24T10:30:04.498Z,979.4
2017-06-24T10:31:07.540Z,979.5
2017-06-24T10:32:10.525Z,979.4
2017-06-24T10:33:13.491Z,979.1
2017-06-24T10:34:16.384Z,979.4
2017-06-24T10:35:19.260Z,979.5
2017-06-24T10:36:22.269Z,979.4
2017-06-24T10:37:25.174Z,979.5
2017-06-24T10:38:28.119Z,979.4
2017-06-24T10:39:30.940Z,979.1
2017-06-24T10:40:33.818Z,979.4
2017-06-24T10:41:36.576Z,979.5
2017-06-24T10:42:40.106Z,979.4
2017-06-24T10:43:42.837Z,979.5
2017-06-24T10:44:45.621Z,979.4
2017-06-24T10:45:48.323Z,979.4
2017-06-24T10:46:53.306Z,979.4
2017-06-24T10:47:56.445Z,979.3
2017-06-24T10:48:59.310Z,979.2
2017-06-24T10:50:02.210Z,979.5
2017-06-24T10:51:05.171Z,979.5
2017-06-24T10:52:08.157Z,979.5
2017-06-24T10:53:12.652Z,979.5
2017-06-24T10:54:15.457Z,979.4
2017-06-24T10:55:19.040Z,979.5
2017-06-24T10:56:22.212Z,979.5
2017-06-24T10:57:25.033Z,979.5
2017-06-24T10:58:29.029Z,979.6
2017-06-24T10:59:31.925Z,979.6
2017-06-24T11:00:34.681Z,979.6
2017-06-24T11:01:37.567Z,979.5
2017-06-24T11:02:40.783Z,979.6
2017-06-24T11:03:43.495Z,979.6
2017-06-24T11:04:46.155Z,979.7
2017-06-24T11:05:48.937Z,979.3
2017-06-24T11:06:51.806Z,979.6
2017-06-24T11:07:54.520Z,979.6
2017-06-24T11:08:57.218Z,979.3
2017-06-24T11:10:00.020Z,979.6
2017-06-24T11:11:02.764Z,979.6
2017-06-24T11:12:05.576Z,979.6
2017-06-24T11:13:08.608Z,979.6
2017-06-24T11:14:11.667Z,979.6
2017-06-24T11:15:14.402Z,979.5
2017-06-24T11:16:17.200Z,979.6
2017-06-24T11:17:20.011Z,979.2
2017-06-24T11:18:22.682Z,979.2
2017-06-24T11:19:25.467Z,979.5
2017-06-24T11:20:28.128Z,979.5
2017-06-24T11:21:30.844Z,979.5
2017-06-24T11:22:34.609Z,979.5
2017-06-24T11:23:37.385Z,979.4
2017-06-24T11:24:40.358Z,979.6
2017-06-24T11:25:43.171Z,979.6
2017-06-24T11:26:45.910Z,979.5
2017-06-24T11:27:50.071Z,979.3
2017-06-24T11:28:52.835Z,979.5
2017-06-24T11:29:56.169Z,979.4
2017-06-24T11:30:58.891Z,979.4
2017-06-24T11:32:01.889Z,979.3
2017-06-24T11:33:04.537Z,979.3
2017-06-24T11:34:07.361Z,979.3
2017-06-24T11:35:10.177Z,979.2
2017-06-24T11:36:12.867Z,979.3
2017-06-24T11:37:15.669Z,979
2017-06-24T11:38:18.380Z,979.4
2017-06-24T11:39:21.143Z,979.4
2017-06-24T11:40:24.023Z,979.3
2017-06-24T11:41:27.276Z,979.3
2017-06-24T11:42:30.115Z,979.3
2017-06-24T11:43:32.897Z,979.4
2017-06-24T11:44:36.951Z,979.2
2017-06-24T11:45:39.642Z,979.3
2017-06-24T11:46:42.544Z,979.3
2017-06-24T11:47:45.214Z,979.3
2017-06-24T11:48:47.879Z,979.1
2017-06-24T11:49:50.529Z,979.3
2017-06-24T11:50:54.055Z,979.3
2017-06-24T11:51:56.796Z,979.3
2017-06-24T11:52:59.567Z,978.8
2017-06-24T11:54:02.434Z,979.2
2017-06-24T11:55:05.299Z,979.3
2017-06-24T11:56:08.140Z,979.3
2017-06-24T11:57:10.893Z,979.3
2017-06-24T11:58:13.638Z,979.3
2017-06-24T11:59:16.309Z,979.3
2017-06-24T12:00:19.056Z,979.4
2017-06-24T12:01:22.180Z,979.4
2017-06-24T12:02:25.045Z,979.4
2017-06-24T12:03:27.800Z,979.4
2017-06-24T12:04:30.561Z,979.4
2017-06-24T12:05:33.355Z,979.3
2017-06-24T12:06:36.101Z,979.4
2017-06-24T12:07:38.813Z,979.1
2017-06-24T12:08:41.624Z,979.3
2017-06-24T12:09:44.454Z,979.4
2017-06-24T12:10:47.822Z,979.4
2017-06-24T12:11:50.659Z,979.4
2017-06-24T12:12:53.446Z,979.5
2017-06-24T12:13:56.148Z,979.5
2017-06-24T12:14:59.189Z,979.4
2017-06-24T12:16:02.149Z,979.2
2017-06-24T12:17:05.166Z,979.5
2017-06-24T12:18:08.872Z,979.5
2017-06-24T12:19:11.710Z,979.5
2017-06-24T12:20:14.568Z,979.5
2017-06-24T12:21:17.636Z,979.5
2017-06-24T12:22:20.459Z,979.3
2017-06-24T12:23:23.757Z,979.4
2017-06-24T12:24:26.499Z,979.4
2017-06-24T12:25:29.502Z,979.4
2017-06-24T12:26:32.271Z,979.4
2017-06-24T12:27:35.127Z,979.4
2017-06-24T12:28:40.342Z,979.4
2017-06-24T12:29:43.317Z,979.4
2017-06-24T12:30:46.311Z,979.4
2017-06-24T12:31:50.292Z,979.4
2017-06-24T12:32:53.173Z,979.4
2017-06-24T12:33:55.841Z,979.4
2017-06-24T12:34:58.819Z,979.5
2017-06-24T12:36:01.716Z,979.4
2017-06-24T12:37:05.151Z,979.4
2017-06-24T12:38:07.866Z,979.4
2017-06-24T12:39:10.906Z,979.5
2017-06-24T12:40:13.708Z,979.4
2017-06-24T12:41:16.790Z,979.5
2017-06-24T12:42:20.480Z,979.4
2017-06-24T12:43:24.251Z,979.5
2017-06-24T12:44:27.016Z,979.5
2017-06-24T12:45:30.368Z,979.6
2017-06-24T12:46:33.118Z,979.5
2017-06-24T12:47:35.977Z,979.4
2017-06-24T12:48:39.047Z,979.4
2017-06-24T12:49:41.937Z,979.4
2017-06-24T12:50:45.804Z,979.4
2017-06-24T12:51:48.819Z,979.5
2017-06-24T12:52:51.692Z,979.4
2017-06-24T12:53:54.511Z,979.4
2017-06-24T12:54:58.356Z,979.1
2017-06-24T12:56:02.472Z,979.4
2017-06-24T12:57:05.974Z,979.5
2017-06-24T12:58:08.749Z,979.3
2017-06-24T12:59:11.597Z,979.4
2017-06-24T13:00:14.934Z,979.3
2017-06-24T13:01:17.680Z,979.3
2017-06-24T13:02:21.114Z,979.3
2017-06-24T13:03:23.892Z,979.3
2017-06-24T13:04:26.583Z,979.2
2017-06-24T13:05:30.874Z,979.3
2017-06-24T13:06:33.635Z,979.3
2017-06-24T13:07:36.384Z,979.3
2017-06-24T13:08:39.235Z,979.2
2017-06-24T13:09:42.180Z,979.3
2017-06-24T13:10:45.165Z,979.3
2017-06-24T13:11:47.917Z,979.3
2017-06-24T13:12:50.858Z,979.3
2017-06-24T13:13:53.573Z,979.3
2017-06-24T13:14:56.255Z,979.2
2017-06-24T13:15:59.131Z,979.3
2017-06-24T13:17:02.042Z,979.2
2017-06-24T13:18:04.837Z,979.3
2017-06-24T13:19:07.743Z,979.3
2017-06-24T13:20:10.526Z,979.3
2017-06-24T13:21:13.307Z,979.3
2017-06-24T13:22:16.201Z,979.4
2017-06-24T13:23:18.967Z,979.2
2017-06-24T13:24:21.747Z,979.3
2017-06-24T13:25:24.725Z,978.7
2017-06-24T13:26:27.523Z,979.2
2017-06-24T13:27:31.937Z,979.2
2017-06-24T13:28:35.163Z,979.2
2017-06-24T13:29:38.532Z,979.3
2017-06-24T13:30:41.696Z,979.3